sensor_id;sensor_type;location;lat;lon;timestamp;pressure;altitude;pressure_sealevel;temperature;humidity
75998;BME280;64685;48.762;44.822;2023-11-21T00:04:36;99779.22;;;8.37;100.00
75998;BME280;64685;48.762;44.822;2023-11-21T00:09:40;99771.84;;;8.41;100.00
75998;BME280;64685;48.762;44.822;2023-11-21T00:14:43;99778.63;;;8.23;100.00
75998;BME280;64685;48.762;44.822;2023-11-21T00:19:46;99775.97;;;8.18;100.00
75998;BME280;64685;48.762;44.822;2023-11-21T00:24:49;99769.44;;;8.14;100.00
75998;BME280;64685;48.762;44.822;2023-11-21T00:29:52;99771.41;;;8.30;100.00
75998;BME280;64685;48.762;44.822;2023-11-21T00:34:56;99777.59;;;8.36;100.00
75998;BME280;64685;48.762;44.822;2023-11-21T00:39:58;99772.88;;;8.28;100.00
75998;BME280;64685;48.762;44.822;2023-11-21T00:45:06;99777.13;;;8.34;100.00
75998;BME280;64685;48.762;44.822;2023-11-21T00:50:09;99773.03;;;8.31;100.00
75998;BME280;64685;48.762;44.822;2023-11-21T00:55:12;99766.97;;;8.29;100.00
75998;BME280;64685;48.762;44.822;2023-11-21T01:00:15;99765.16;;;8.16;100.00
75998;BME280;64685;48.762;44.822;2023-11-21T01:05:19;99779.56;;;8.18;100.00
75998;BME280;64685;48.762;44.822;2023-11-21T01:10:22;99787.25;;;8.13;100.00
75998;BME280;64685;48.762;44.822;2023-11-21T01:15:25;99775.84;;;7.97;100.00
75998;BME280;64685;48.762;44.822;2023-11-21T01:20:31;99783.53;;;7.92;100.00
75998;BME280;64685;48.762;44.822;2023-11-21T01:25:33;99785.34;;;7.96;100.00
75998;BME280;64685;48.762;44.822;2023-11-21T01:30:36;99782.69;;;8.08;100.00
75998;BME280;64685;48.762;44.822;2023-11-21T01:35:39;99783.66;;;8.21;100.00
75998;BME280;64685;48.762;44.822;2023-11-21T01:40:43;99781.06;;;8.24;100.00
75998;BME280;64685;48.762;44.822;2023-11-21T01:45:46;99774.66;;;8.15;100.00
75998;BME280;64685;48.762;44.822;2023-11-21T01:50:49;99771.22;;;8.27;100.00
75998;BME280;64685;48.762;44.822;2023-11-21T01:55:53;99767.47;;;8.31;100.00
75998;BME280;64685;48.762;44.822;2023-11-21T02:01:00;99771.38;;;8.39;100.00
75998;BME280;64685;48.762;44.822;2023-11-21T02:06:04;99763.72;;;8.27;100.00
75998;BME280;64685;48.762;44.822;2023-11-21T02:11:08;99772.53;;;8.04;100.00
75998;BME280;64685;48.762;44.822;2023-11-21T02:16:11;99779.44;;;7.81;100.00
75998;BME280;64685;48.762;44.822;2023-11-21T02:21:15;99789.41;;;7.82;100.00
75998;BME280;64685;48.762;44.822;2023-11-21T02:26:18;99769.16;;;7.73;100.00
75998;BME280;64685;48.762;44.822;2023-11-21T02:31:22;99771.44;;;7.96;100.00
75998;BME280;64685;48.762;44.822;2023-11-21T02:36:25;99776.16;;;8.04;100.00
75998;BME280;64685;48.762;44.822;2023-11-21T02:41:29;99759.78;;;8.03;100.00
75998;BME280;64685;48.762;44.822;2023-11-21T02:46:32;99775.28;;;8.38;100.00
75998;BME280;64685;48.762;44.822;2023-11-21T02:51:36;99765.66;;;8.10;100.00
75998;BME280;64685;48.762;44.822;2023-11-21T02:56:40;99782.03;;;8.11;100.00
75998;BME280;64685;48.762;44.822;2023-11-21T03:01:43;99762.09;;;7.92;100.00
75998;BME280;64685;48.762;44.822;2023-11-21T03:06:46;99766.50;;;8.02;100.00
75998;BME280;64685;48.762;44.822;2023-11-21T03:11:49;99755.22;;;7.98;100.00
75998;BME280;64685;48.762;44.822;2023-11-21T03:16:52;99741.34;;;7.81;100.00
75998;BME280;64685;48.762;44.822;2023-11-21T03:21:56;99753.94;;;7.96;100.00
75998;BME280;64685;48.762;44.822;2023-11-21T03:26:59;99757.03;;;7.94;100.00
75998;BME280;64685;48.762;44.822;2023-11-21T03:32:02;99755.22;;;8.07;100.00
75998;BME280;64685;48.762;44.822;2023-11-21T03:37:05;99755.06;;;8.12;100.00
75998;BME280;64685;48.762;44.822;2023-11-21T03:42:08;99753.59;;;7.97;100.00
75998;BME280;64685;48.762;44.822;2023-11-21T03:47:10;99759.81;;;7.94;100.00
75998;BME280;64685;48.762;44.822;2023-11-21T03:52:14;99758.19;;;7.93;100.00
75998;BME280;64685;48.762;44.822;2023-11-21T03:57:17;99755.56;;;7.88;100.00
75998;BME280;64685;48.762;44.822;2023-11-21T04:02:20;99748.72;;;7.77;100.00
75998;BME280;64685;48.762;44.822;2023-11-21T04:07:23;99747.38;;;8.00;100.00
75998;BME280;64685;48.762;44.822;2023-11-21T04:12:25;99750.66;;;8.02;100.00
75998;BME280;64685;48.762;44.822;2023-11-21T04:17:28;99758.34;;;7.80;100.00
75998;BME280;64685;48.762;44.822;2023-11-21T04:22:31;99753.47;;;7.77;100.00
75998;BME280;64685;48.762;44.822;2023-11-21T04:27:34;99764.22;;;7.87;100.00
75998;BME280;64685;48.762;44.822;2023-11-21T04:32:37;99774.53;;;7.86;100.00
75998;BME280;64685;48.762;44.822;2023-11-21T04:37:40;99776.19;;;7.70;100.00
75998;BME280;64685;48.762;44.822;2023-11-21T04:42:42;99786.16;;;7.63;100.00
75998;BME280;64685;48.762;44.822;2023-11-21T04:47:45;99786.47;;;7.70;100.00
75998;BME280;64685;48.762;44.822;2023-11-21T04:52:48;99784.50;;;7.70;100.00
75998;BME280;64685;48.762;44.822;2023-11-21T04:57:50;99787.28;;;7.70;100.00
75998;BME280;64685;48.762;44.822;2023-11-21T05:02:53;99786.63;;;7.73;100.00
75998;BME280;64685;48.762;44.822;2023-11-21T05:07:56;99790.06;;;7.87;100.00
75998;BME280;64685;48.762;44.822;2023-11-21T05:12:59;99787.91;;;8.01;100.00
75998;BME280;64685;48.762;44.822;2023-11-21T05:18:02;99795.94;;;8.20;100.00
75998;BME280;64685;48.762;44.822;2023-11-21T05:23:05;99792.50;;;8.31;100.00
75998;BME280;64685;48.762;44.822;2023-11-21T05:28:08;99783.47;;;8.34;100.00
75998;BME280;64685;48.762;44.822;2023-11-21T05:33:11;99793.63;;;8.39;100.00
75998;BME280;64685;48.762;44.822;2023-11-21T05:38:14;99793.94;;;8.46;100.00
75998;BME280;64685;48.762;44.822;2023-11-21T05:43:17;99804.03;;;8.59;100.00
75998;BME280;64685;48.762;44.822;2023-11-21T05:48:20;99790.97;;;8.59;100.00
75998;BME280;64685;48.762;44.822;2023-11-21T05:53:23;99809.47;;;8.55;100.00
75998;BME280;64685;48.762;44.822;2023-11-21T05:58:26;99801.63;;;8.40;100.00
75998;BME280;64685;48.762;44.822;2023-11-21T06:03:29;99801.59;;;8.49;100.00
75998;BME280;64685;48.762;44.822;2023-11-21T06:08:31;99800.63;;;8.53;100.00
75998;BME280;64685;48.762;44.822;2023-11-21T06:13:34;99801.28;;;8.50;100.00
75998;BME280;64685;48.762;44.822;2023-11-21T06:18:37;99803.38;;;8.62;100.00
75998;BME280;64685;48.762;44.822;2023-11-21T06:23:40;99816.44;;;8.70;100.00
75998;BME280;64685;48.762;44.822;2023-11-21T06:28:43;99821.53;;;8.68;100.00
75998;BME280;64685;48.762;44.822;2023-11-21T06:33:46;99815.66;;;8.69;100.00
75998;BME280;64685;48.762;44.822;2023-11-21T06:38:49;99815.13;;;8.76;100.00
75998;BME280;64685;48.762;44.822;2023-11-21T06:43:52;99817.91;;;8.76;100.00
75998;BME280;64685;48.762;44.822;2023-11-21T06:48:55;99814.63;;;8.82;100.00
75998;BME280;64685;48.762;44.822;2023-11-21T06:53:58;99829.97;;;8.88;100.00
75998;BME280;64685;48.762;44.822;2023-11-21T06:59:01;99832.59;;;8.93;100.00
75998;BME280;64685;48.762;44.822;2023-11-21T07:04:05;99846.38;;;8.81;100.00
75998;BME280;64685;48.762;44.822;2023-11-21T07:09:09;99855.53;;;8.82;100.00
75998;BME280;64685;48.762;44.822;2023-11-21T07:14:14;99860.97;;;8.70;100.00
75998;BME280;64685;48.762;44.822;2023-11-21T07:19:17;99854.41;;;8.74;100.00
75998;BME280;64685;48.762;44.822;2023-11-21T07:24:20;99860.00;;;8.66;100.00
75998;BME280;64685;48.762;44.822;2023-11-21T07:29:27;99859.50;;;8.72;100.00
75998;BME280;64685;48.762;44.822;2023-11-21T07:34:31;99852.03;;;8.56;100.00
75998;BME280;64685;48.762;44.822;2023-11-21T07:39:35;99862.81;;;8.57;100.00
75998;BME280;64685;48.762;44.822;2023-11-21T07:44:38;99864.78;;;8.57;100.00
75998;BME280;64685;48.762;44.822;2023-11-21T07:49:41;99868.38;;;8.49;100.00
75998;BME280;64685;48.762;44.822;2023-11-21T07:54:46;99858.41;;;8.48;100.00
75998;BME280;64685;48.762;44.822;2023-11-21T07:59:48;99861.38;;;8.34;100.00
75998;BME280;64685;48.762;44.822;2023-11-21T08:04:52;99858.94;;;8.41;100.00
75998;BME280;64685;48.762;44.822;2023-11-21T08:09:54;99851.03;;;8.52;100.00
75998;BME280;64685;48.762;44.822;2023-11-21T08:14:59;99852.31;;;8.71;100.00
75998;BME280;64685;48.762;44.822;2023-11-21T08:20:01;99839.41;;;8.67;100.00
75998;BME280;64685;48.762;44.822;2023-11-21T08:25:06;99850.56;;;8.50;100.00
75998;BME280;64685;48.762;44.822;2023-11-21T08:30:10;99846.63;;;8.59;100.00
75998;BME280;64685;48.762;44.822;2023-11-21T08:35:14;99851.03;;;8.60;100.00
75998;BME280;64685;48.762;44.822;2023-11-21T08:40:19;99846.16;;;8.32;100.00
75998;BME280;64685;48.762;44.822;2023-11-21T08:45:23;99843.88;;;7.91;100.00
75998;BME280;64685;48.762;44.822;2023-11-21T08:50:26;99834.88;;;8.03;100.00
75998;BME280;64685;48.762;44.822;2023-11-21T08:55:29;99850.91;;;7.89;100.00
75998;BME280;64685;48.762;44.822;2023-11-21T09:00:32;99857.44;;;7.93;100.00
75998;BME280;64685;48.762;44.822;2023-11-21T09:05:38;99858.41;;;7.71;100.00
75998;BME280;64685;48.762;44.822;2023-11-21T09:10:41;99868.97;;;7.35;100.00
75998;BME280;64685;48.762;44.822;2023-11-21T09:15:45;99867.44;;;7.21;100.00
75998;BME280;64685;48.762;44.822;2023-11-21T09:20:49;99875.38;;;7.05;100.00
75998;BME280;64685;48.762;44.822;2023-11-21T09:25:51;99881.13;;;7.09;100.00
75998;BME280;64685;48.762;44.822;2023-11-21T09:30:56;99869.06;;;7.22;100.00
75998;BME280;64685;48.762;44.822;2023-11-21T09:35:59;99881.84;;;7.31;100.00
75998;BME280;64685;48.762;44.822;2023-11-21T09:41:03;99871.88;;;6.91;100.00
75998;BME280;64685;48.762;44.822;2023-11-21T09:46:08;99887.25;;;6.97;100.00
75998;BME280;64685;48.762;44.822;2023-11-21T09:51:15;99878.06;;;6.88;100.00
75998;BME280;64685;48.762;44.822;2023-11-21T09:56:18;99878.69;;;6.77;100.00
75998;BME280;64685;48.762;44.822;2023-11-21T10:01:27;99871.81;;;6.74;100.00
75998;BME280;64685;48.762;44.822;2023-11-21T10:06:30;99884.56;;;6.53;100.00
75998;BME280;64685;48.762;44.822;2023-11-21T10:11:34;99888.34;;;6.57;100.00
75998;BME280;64685;48.762;44.822;2023-11-21T10:16:38;99879.66;;;6.50;100.00
75998;BME280;64685;48.762;44.822;2023-11-21T10:21:41;99883.88;;;6.48;100.00
75998;BME280;64685;48.762;44.822;2023-11-21T10:26:44;99878.34;;;6.48;100.00
75998;BME280;64685;48.762;44.822;2023-11-21T10:31:55;99901.72;;;6.33;100.00
75998;BME280;64685;48.762;44.822;2023-11-21T10:37:09;99899.56;;;6.30;100.00
75998;BME280;64685;48.762;44.822;2023-11-21T10:42:13;99907.06;;;6.30;100.00
75998;BME280;64685;48.762;44.822;2023-11-21T10:47:16;99912.69;;;6.16;100.00
75998;BME280;64685;48.762;44.822;2023-11-21T10:52:21;99922.72;;;5.90;100.00
75998;BME280;64685;48.762;44.822;2023-11-21T10:57:25;99920.13;;;5.94;100.00
75998;BME280;64685;48.762;44.822;2023-11-21T11:02:29;99930.00;;;5.86;100.00
75998;BME280;64685;48.762;44.822;2023-11-21T11:07:35;99924.03;;;5.93;100.00
75998;BME280;64685;48.762;44.822;2023-11-21T11:12:40;99937.41;;;5.64;100.00
75998;BME280;64685;48.762;44.822;2023-11-21T11:17:45;99926.63;;;5.62;100.00
75998;BME280;64685;48.762;44.822;2023-11-21T11:28:11;99919.47;;;5.34;100.00
75998;BME280;64685;48.762;44.822;2023-11-21T11:38:45;99941.31;;;5.22;100.00
75998;BME280;64685;48.762;44.822;2023-11-21T11:43:48;99936.06;;;5.07;100.00
75998;BME280;64685;48.762;44.822;2023-11-21T11:49:03;99952.97;;;5.06;100.00
75998;BME280;64685;48.762;44.822;2023-11-21T11:54:06;99957.75;;;4.87;100.00
75998;BME280;64685;48.762;44.822;2023-11-21T11:59:09;99977.75;;;4.84;100.00
75998;BME280;64685;48.762;44.822;2023-11-21T12:09:23;99989.22;;;4.59;100.00
75998;BME280;64685;48.762;44.822;2023-11-21T12:14:27;99999.78;;;4.38;100.00
75998;BME280;64685;48.762;44.822;2023-11-21T12:19:31;100001.50;;;4.53;100.00
75998;BME280;64685;48.762;44.822;2023-11-21T12:24:34;100013.47;;;4.30;100.00
75998;BME280;64685;48.762;44.822;2023-11-21T12:29:37;100021.16;;;4.33;100.00
75998;BME280;64685;48.762;44.822;2023-11-21T12:34:40;100029.75;;;4.13;100.00
75998;BME280;64685;48.762;44.822;2023-11-21T12:39:43;100045.72;;;3.97;100.00
75998;BME280;64685;48.762;44.822;2023-11-21T12:44:46;100053.13;;;3.78;100.00
75998;BME280;64685;48.762;44.822;2023-11-21T12:49:50;100054.69;;;3.66;100.00
75998;BME280;64685;48.762;44.822;2023-11-21T12:54:53;100061.50;;;3.92;100.00
75998;BME280;64685;48.762;44.822;2023-11-21T12:59:59;100061.47;;;3.73;100.00
75998;BME280;64685;48.762;44.822;2023-11-21T13:05:04;100070.00;;;3.53;100.00
75998;BME280;64685;48.762;44.822;2023-11-21T13:10:16;100070.56;;;3.50;100.00
75998;BME280;64685;48.762;44.822;2023-11-21T13:15:20;100078.09;;;3.45;100.00
75998;BME280;64685;48.762;44.822;2023-11-21T13:20:26;100091.88;;;3.45;100.00
75998;BME280;64685;48.762;44.822;2023-11-21T13:25:29;100095.03;;;3.33;100.00
75998;BME280;64685;48.762;44.822;2023-11-21T13:30:33;100097.31;;;3.26;100.00
75998;BME280;64685;48.762;44.822;2023-11-21T13:35:38;100105.50;;;3.36;100.00
75998;BME280;64685;48.762;44.822;2023-11-21T13:40:47;100119.38;;;3.26;100.00
75998;BME280;64685;48.762;44.822;2023-11-21T13:45:53;100126.78;;;3.02;100.00
75998;BME280;64685;48.762;44.822;2023-11-21T13:51:19;100123.47;;;3.00;100.00
75998;BME280;64685;48.762;44.822;2023-11-21T13:56:23;100121.84;;;2.94;100.00
75998;BME280;64685;48.762;44.822;2023-11-21T14:01:27;100141.78;;;2.86;100.00
75998;BME280;64685;48.762;44.822;2023-11-21T14:06:33;100132.56;;;2.67;100.00
75998;BME280;64685;48.762;44.822;2023-11-21T14:11:43;100146.84;;;2.74;100.00
75998;BME280;64685;48.762;44.822;2023-11-21T14:16:49;100159.09;;;2.92;100.00
75998;BME280;64685;48.762;44.822;2023-11-21T14:21:53;100163.66;;;2.73;100.00
75998;BME280;64685;48.762;44.822;2023-11-21T14:26:56;100166.22;;;2.59;100.00
75998;BME280;64685;48.762;44.822;2023-11-21T14:46:02;100191.19;;;2.78;100.00
75998;BME280;64685;48.762;44.822;2023-11-21T14:51:06;100189.59;;;2.67;100.00
75998;BME280;64685;48.762;44.822;2023-11-21T14:56:28;100204.28;;;2.52;100.00
75998;BME280;64685;48.762;44.822;2023-11-21T15:01:34;100210.34;;;2.49;100.00
75998;BME280;64685;48.762;44.822;2023-11-21T15:06:47;100220.84;;;2.42;100.00
75998;BME280;64685;48.762;44.822;2023-11-21T15:11:50;100215.19;;;2.14;100.00
75998;BME280;64685;48.762;44.822;2023-11-21T15:17:00;100224.25;;;2.19;100.00
75998;BME280;64685;48.762;44.822;2023-11-21T15:22:04;100222.97;;;1.97;100.00
75998;BME280;64685;48.762;44.822;2023-11-21T15:27:09;100219.09;;;1.93;100.00
75998;BME280;64685;48.762;44.822;2023-11-21T15:32:13;100217.16;;;1.93;100.00
